createdAt,value
2023-09-16T00:00:51.287Z,8.13
2023-09-16T00:03:20.891Z,8.90
2023-09-16T00:05:49.085Z,8.65
2023-09-16T00:08:17.324Z,7.93
2023-09-16T00:10:45.696Z,9.48
2023-09-16T00:13:13.959Z,8.73
2023-09-16T00:15:42.261Z,7.43
2023-09-16T00:18:10.905Z,7.95
2023-09-16T00:20:40.406Z,8.00
2023-09-16T00:23:08.589Z,8.77
2023-09-16T00:25:37.245Z,8.50
2023-09-16T00:28:07.475Z,8.60
2023-09-16T00:30:35.883Z,8.35
2023-09-16T00:33:04.705Z,8.25
2023-09-16T00:35:33.429Z,9.48
2023-09-16T00:38:03.166Z,7.90
2023-09-16T00:40:32.567Z,7.75
2023-09-16T00:43:00.781Z,8.00
2023-09-16T00:45:29.249Z,8.48
2023-09-16T00:47:59.035Z,8.98
2023-09-16T00:50:27.739Z,8.40
2023-09-16T00:53:00.624Z,7.18
2023-09-16T00:55:30.365Z,8.30
2023-09-16T00:58:00.016Z,8.85
2023-09-16T01:00:30.147Z,8.50
2023-09-16T01:03:00.269Z,7.50
2023-09-16T01:05:28.772Z,7.63
2023-09-16T01:07:57.076Z,7.35
2023-09-16T01:10:25.434Z,8.43
2023-09-16T01:12:58.282Z,9.07
2023-09-16T01:15:33.126Z,10.10
2023-09-16T01:18:13.576Z,9.30
2023-09-16T01:20:42.480Z,11.07
2023-09-16T01:23:11.235Z,9.18
2023-09-16T01:25:40.814Z,10.27
2023-09-16T01:28:09.126Z,11.07
2023-09-16T01:30:45.220Z,10.00
2023-09-16T01:33:23.855Z,9.77
2023-09-16T01:36:01.701Z,11.20
2023-09-16T01:38:33.816Z,10.85
2023-09-16T01:41:04.925Z,9.65
2023-09-16T01:43:34.184Z,10.20
2023-09-16T01:46:02.441Z,9.60
2023-09-16T01:48:44.584Z,10.63
2023-09-16T01:51:15.465Z,10.23
2023-09-16T01:53:43.713Z,9.80
2023-09-16T01:56:13.196Z,10.60
2023-09-16T01:58:41.814Z,10.82
2023-09-16T02:01:12.058Z,12.20
2023-09-16T02:03:40.594Z,10.52
2023-09-16T02:06:09.106Z,10.82
2023-09-16T02:08:37.608Z,10.82
2023-09-16T02:11:06.459Z,10.63
2023-09-16T02:13:36.854Z,9.50
2023-09-16T02:16:05.442Z,11.25
2023-09-16T02:18:33.883Z,10.18
2023-09-16T02:21:02.102Z,10.60
2023-09-16T02:23:30.693Z,9.98
2023-09-16T02:26:03.058Z,9.57
2023-09-16T02:28:31.737Z,10.13
2023-09-16T02:31:01.616Z,10.10
2023-09-16T02:33:30.148Z,10.38
2023-09-16T02:35:59.087Z,10.32
2023-09-16T02:38:27.474Z,10.63
2023-09-16T02:40:56.310Z,11.73
2023-09-16T02:43:25.250Z,9.77
2023-09-16T02:45:54.110Z,11.38
2023-09-16T02:48:23.900Z,12.43
2023-09-16T02:50:52.785Z,11.00
2023-09-16T02:53:21.499Z,12.25
2023-09-16T02:55:52.739Z,12.73
2023-09-16T02:58:38.943Z,12.55
2023-09-16T03:01:12.066Z,11.85
2023-09-16T03:03:42.469Z,13.27
2023-09-16T03:06:10.902Z,13.25
2023-09-16T03:08:39.752Z,12.38
2023-09-16T03:11:08.962Z,13.68
2023-09-16T03:13:37.326Z,13.60
2023-09-16T03:16:18.568Z,12.65
2023-09-16T03:18:50.360Z,12.88
2023-09-16T03:21:20.465Z,12.52
2023-09-16T03:23:48.720Z,12.57
2023-09-16T03:26:17.844Z,15.02
2023-09-16T03:28:48.029Z,12.95
2023-09-16T03:31:17.840Z,12.38
2023-09-16T03:33:47.504Z,14.00
2023-09-16T03:36:15.780Z,13.95
2023-09-16T03:38:49.327Z,14.38
2023-09-16T03:41:18.160Z,12.15
2023-09-16T03:43:49.606Z,14.40
2023-09-16T03:46:18.570Z,14.40
2023-09-16T03:48:48.609Z,13.27
2023-09-16T03:51:17.348Z,13.23
2023-09-16T03:53:45.606Z,15.68
2023-09-16T03:56:14.014Z,15.13
2023-09-16T03:58:42.332Z,15.52
2023-09-16T04:01:11.060Z,15.20
2023-09-16T04:03:39.807Z,14.70
2023-09-16T04:06:09.580Z,17.02
2023-09-16T04:08:42.257Z,17.55
2023-09-16T04:11:12.308Z,15.70
2023-09-16T04:13:40.661Z,16.40
2023-09-16T04:16:08.978Z,15.73
2023-09-16T04:18:37.746Z,17.25
2023-09-16T04:21:08.176Z,16.67
2023-09-16T04:23:37.941Z,17.60
2023-09-16T04:26:09.277Z,15.52
2023-09-16T04:28:37.457Z,17.00
2023-09-16T04:31:05.867Z,14.90
2023-09-16T04:33:34.186Z,16.13
2023-09-16T04:36:04.079Z,13.85
2023-09-16T04:38:32.275Z,14.90
2023-09-16T04:41:01.796Z,15.63
2023-09-16T04:43:30.072Z,14.05
2023-09-16T04:45:58.197Z,13.43
2023-09-16T04:48:26.589Z,13.63
2023-09-16T04:50:55.015Z,13.27
2023-09-16T04:53:23.292Z,13.73
2023-09-16T04:56:02.406Z,12.95
2023-09-16T04:58:30.566Z,11.80
2023-09-16T05:01:01.526Z,13.90
2023-09-16T05:03:29.906Z,14.65
2023-09-16T05:05:58.102Z,13.98
2023-09-16T05:08:26.327Z,13.02
2023-09-16T05:10:55.531Z,13.18
2023-09-16T05:13:25.192Z,14.77
2023-09-16T05:15:53.887Z,14.50
2023-09-16T05:18:22.432Z,15.45
2023-09-16T05:20:53.094Z,14.25
2023-09-16T05:23:24.385Z,14.55
2023-09-16T05:25:52.882Z,14.43
2023-09-16T05:28:21.536Z,16.27
2023-09-16T05:30:51.181Z,15.80
2023-09-16T05:33:20.665Z,15.50
2023-09-16T05:35:48.760Z,16.25
2023-09-16T05:38:16.936Z,14.30
2023-09-16T05:40:45.073Z,15.85
2023-09-16T05:43:13.236Z,14.60
2023-09-16T05:45:41.627Z,15.02
2023-09-16T05:48:11.266Z,15.35
2023-09-16T05:50:39.829Z,17.75
2023-09-16T05:53:07.889Z,16.30
2023-09-16T05:55:40.557Z,15.20
2023-09-16T05:58:12.791Z,14.98
2023-09-16T06:00:41.326Z,17.13
2023-09-16T06:03:11.230Z,14.07
2023-09-16T06:05:39.334Z,11.85
2023-09-16T06:08:08.236Z,12.02
2023-09-16T06:10:37.193Z,10.15
2023-09-16T06:13:06.040Z,7.60
2023-09-16T06:15:34.148Z,6.57
2023-09-16T06:18:02.318Z,6.43
2023-09-16T06:20:31.823Z,4.07
2023-09-16T06:23:03.258Z,4.10
2023-09-16T06:25:32.129Z,3.53
2023-09-16T06:28:00.638Z,3.10
2023-09-16T06:30:28.803Z,3.25
2023-09-16T06:32:58.073Z,3.28
2023-09-16T06:35:26.568Z,3.42
2023-09-16T06:37:56.342Z,3.60
2023-09-16T06:40:24.590Z,3.28
2023-09-16T06:42:52.842Z,2.88
2023-09-16T06:45:23.969Z,2.95
2023-09-16T06:47:57.147Z,2.65
2023-09-16T06:50:25.865Z,2.53
2023-09-16T06:53:09.466Z,2.45
2023-09-16T06:56:01.159Z,2.63
2023-09-16T07:06:32.159Z,2.67
2023-09-16T07:09:02.000Z,3.08
2023-09-16T07:11:30.605Z,2.97
2023-09-16T07:13:59.311Z,2.50
2023-09-16T07:16:39.725Z,1.70
2023-09-16T07:19:09.028Z,2.58
2023-09-16T07:21:38.012Z,2.05
2023-09-16T07:24:24.542Z,2.53
2023-09-16T07:26:53.409Z,2.63
2023-09-16T07:29:24.874Z,2.45
2023-09-16T07:31:53.289Z,2.85
2023-09-16T07:34:23.588Z,2.45
2023-09-16T07:36:52.104Z,2.15
2023-09-16T07:39:21.814Z,2.13
2023-09-16T07:41:50.063Z,2.70
2023-09-16T07:44:18.536Z,2.38
2023-09-16T07:46:47.096Z,2.03
2023-09-16T07:49:15.333Z,2.95
2023-09-16T07:51:46.971Z,2.10
2023-09-16T07:54:16.349Z,2.45
2023-09-16T07:56:47.862Z,2.47
2023-09-16T07:59:20.751Z,2.40
2023-09-16T08:01:49.447Z,2.33
2023-09-16T08:04:17.830Z,2.67
2023-09-16T08:06:46.139Z,2.30
2023-09-16T08:09:14.541Z,2.03
2023-09-16T08:11:42.721Z,1.98
2023-09-16T08:14:12.244Z,2.28
2023-09-16T08:16:40.537Z,2.30
2023-09-16T08:19:08.950Z,2.08
2023-09-16T08:21:37.248Z,2.35
2023-09-16T08:24:05.817Z,2.65
2023-09-16T08:26:34.003Z,3.10
2023-09-16T08:29:02.208Z,2.63
2023-09-16T08:31:31.880Z,3.05
2023-09-16T08:34:03.433Z,2.60
2023-09-16T08:36:36.047Z,2.80
2023-09-16T08:39:04.637Z,3.03
2023-09-16T08:41:43.197Z,2.60
2023-09-16T08:44:17.340Z,2.75
2023-09-16T08:46:59.719Z,2.42
2023-09-16T08:49:33.332Z,3.10
2023-09-16T08:52:07.203Z,2.92
2023-09-16T08:54:39.306Z,2.67
2023-09-16T08:57:10.731Z,2.55
2023-09-16T08:59:45.034Z,2.65
2023-09-16T09:02:19.543Z,2.03
2023-09-16T09:04:49.937Z,2.40
2023-09-16T09:07:21.792Z,2.30
2023-09-16T09:09:54.589Z,2.38
2023-09-16T09:12:24.717Z,2.38
2023-09-16T09:14:57.189Z,3.08
2023-09-16T09:17:40.616Z,2.80
2023-09-16T09:20:14.839Z,2.50
2023-09-16T09:22:45.581Z,2.35
2023-09-16T09:25:16.241Z,2.63
2023-09-16T09:27:49.230Z,2.13
2023-09-16T09:30:26.033Z,2.00
2023-09-16T09:32:58.059Z,2.20
2023-09-16T09:35:32.990Z,2.35
2023-09-16T09:38:03.602Z,2.20
2023-09-16T09:40:33.972Z,2.40
2023-09-16T09:43:14.082Z,2.40
2023-09-16T09:45:52.888Z,2.92
2023-09-16T09:48:54.558Z,2.40
2023-09-16T09:51:22.973Z,2.53
2023-09-16T09:53:51.828Z,2.13
2023-09-16T09:56:20.898Z,2.50
2023-09-16T09:58:49.391Z,2.45
2023-09-16T10:01:18.185Z,2.50
2023-09-16T10:03:51.385Z,2.83
2023-09-16T10:06:21.934Z,3.30
2023-09-16T10:08:50.305Z,2.85
2023-09-16T10:11:22.257Z,3.20
2023-09-16T10:13:51.744Z,3.28
2023-09-16T10:16:20.741Z,2.65
2023-09-16T10:18:51.467Z,3.40
2023-09-16T10:21:20.827Z,2.65
2023-09-16T10:23:49.422Z,3.28
2023-09-16T10:26:18.817Z,3.13
2023-09-16T10:28:48.551Z,3.95
2023-09-16T10:31:17.888Z,3.13
2023-09-16T10:33:48.124Z,3.05
2023-09-16T10:36:19.638Z,2.88
2023-09-16T10:38:50.024Z,3.40
2023-09-16T10:41:20.159Z,3.38
2023-09-16T10:43:49.597Z,3.25
2023-09-16T10:46:20.409Z,4.57
2023-09-16T10:48:52.630Z,3.88
2023-09-16T10:51:25.435Z,4.30
2023-09-16T10:54:08.923Z,3.58
2023-09-16T10:56:43.892Z,3.58
2023-09-16T10:59:17.141Z,3.75
2023-09-16T11:01:53.599Z,4.75
2023-09-16T11:06:52.870Z,3.00
2023-09-16T11:09:22.627Z,3.00
2023-09-16T11:11:52.443Z,3.70
2023-09-16T11:14:22.924Z,2.85
2023-09-16T11:16:53.435Z,3.38
2023-09-16T11:19:25.395Z,3.05
2023-09-16T11:21:55.760Z,2.90
2023-09-16T11:24:24.199Z,2.78
2023-09-16T11:26:53.194Z,3.75
2023-09-16T11:29:24.641Z,2.50
2023-09-16T11:31:55.616Z,2.58
2023-09-16T11:34:26.694Z,2.95
2023-09-16T11:36:58.255Z,2.78
2023-09-16T11:39:37.246Z,2.72
2023-09-16T11:42:05.894Z,2.83
2023-09-16T11:44:34.329Z,2.63
2023-09-16T11:47:05.381Z,2.20
2023-09-16T11:49:35.594Z,2.35
2023-09-16T11:52:05.894Z,2.53
2023-09-16T11:54:34.097Z,1.95
2023-09-16T11:57:02.504Z,2.17
2023-09-16T11:59:30.852Z,2.17
2023-09-16T12:01:59.284Z,2.58
2023-09-16T12:04:29.932Z,1.98
2023-09-16T12:06:58.171Z,2.42
2023-09-16T12:09:28.970Z,2.15
2023-09-16T12:11:57.319Z,2.22
2023-09-16T12:14:25.445Z,2.05
2023-09-16T12:16:54.647Z,2.83
2023-09-16T12:19:23.033Z,2.50
2023-09-16T12:21:52.505Z,2.60
2023-09-16T12:24:22.349Z,3.05
2023-09-16T12:26:52.802Z,9.57
2023-09-16T12:29:21.620Z,2.83
2023-09-16T12:31:50.576Z,1.60
2023-09-16T12:34:20.829Z,2.92
2023-09-16T12:36:51.744Z,3.15
2023-09-16T12:39:23.005Z,2.35
2023-09-16T12:42:14.655Z,2.10
2023-09-16T12:44:44.192Z,6.38
2023-09-16T12:47:13.695Z,1.88
2023-09-16T12:49:43.013Z,1.67
2023-09-16T12:52:12.760Z,1.65
2023-09-16T12:54:44.043Z,1.70
2023-09-16T12:57:15.730Z,1.80
2023-09-16T12:59:47.906Z,2.10
2023-09-16T13:02:16.050Z,2.00
2023-09-16T13:04:44.146Z,1.88
2023-09-16T13:07:12.468Z,1.85
2023-09-16T13:09:41.235Z,1.80
2023-09-16T13:12:09.437Z,2.63
2023-09-16T13:14:40.721Z,2.42
2023-09-16T13:17:08.902Z,8.57
2023-09-16T13:19:42.459Z,11.68
2023-09-16T13:22:13.286Z,3.10
2023-09-16T13:24:46.336Z,1.88
2023-09-16T13:27:18.945Z,2.28
2023-09-16T13:29:49.248Z,3.10
2023-09-16T13:32:17.392Z,53.63
2023-09-16T13:34:46.621Z,6.20
2023-09-16T13:37:15.634Z,3.58
2023-09-16T13:39:45.480Z,4.75
2023-09-16T13:42:14.027Z,3.30
2023-09-16T13:44:48.284Z,2.33
2023-09-16T13:47:17.713Z,1.98
2023-09-16T13:49:45.990Z,2.78
2023-09-16T13:52:14.485Z,2.35
2023-09-16T13:54:42.695Z,2.33
2023-09-16T13:57:11.143Z,2.15
2023-09-16T13:59:39.240Z,1.92
2023-09-16T14:02:08.902Z,2.83
2023-09-16T14:04:37.050Z,2.00
2023-09-16T14:07:05.593Z,2.03
2023-09-16T14:09:33.807Z,2.15
2023-09-16T14:12:01.881Z,2.45
2023-09-16T14:14:29.975Z,2.20
2023-09-16T14:16:58.122Z,2.45
2023-09-16T14:19:27.687Z,2.30
2023-09-16T14:21:55.881Z,1.90
2023-09-16T14:24:25.494Z,2.85
2023-09-16T14:26:53.631Z,2.15
2023-09-16T14:29:21.774Z,2.05
2023-09-16T14:31:49.929Z,2.92
2023-09-16T14:34:18.381Z,1.95
2023-09-16T14:36:48.031Z,2.70
2023-09-16T14:39:16.158Z,2.63
2023-09-16T14:41:45.193Z,3.00
2023-09-16T14:44:13.433Z,2.45
2023-09-16T14:46:41.691Z,2.47
2023-09-16T14:49:10.638Z,2.30
2023-09-16T14:51:41.799Z,2.30
2023-09-16T14:54:11.378Z,2.28
2023-09-16T14:56:39.451Z,2.83
2023-09-16T14:59:07.547Z,2.33
2023-09-16T15:01:37.707Z,2.50
2023-09-16T15:04:06.017Z,2.72
2023-09-16T15:06:34.282Z,2.80
2023-09-16T15:09:02.442Z,2.60
2023-09-16T15:11:32.616Z,2.67
2023-09-16T15:14:00.772Z,3.05
2023-09-16T15:16:29.082Z,2.47
2023-09-16T15:18:57.671Z,4.25
2023-09-16T15:21:25.808Z,3.08
2023-09-16T15:23:54.855Z,2.80
2023-09-16T15:26:23.104Z,4.00
2023-09-16T15:28:56.413Z,2.97
2023-09-16T15:31:24.842Z,3.10
2023-09-16T15:33:54.173Z,2.22
2023-09-16T15:36:22.859Z,3.42
2023-09-16T15:38:51.619Z,3.40
2023-09-16T15:41:19.798Z,2.92
2023-09-16T15:46:17.449Z,3.65
2023-09-16T15:48:46.612Z,2.22
2023-09-16T15:51:15.253Z,3.15
2023-09-16T15:53:43.392Z,3.40
2023-09-16T15:56:11.503Z,2.65
2023-09-16T15:58:39.634Z,3.10
2023-09-16T16:01:08.982Z,2.67
2023-09-16T16:03:38.686Z,2.63
2023-09-16T16:06:06.916Z,3.28
2023-09-16T16:08:36.082Z,3.22
2023-09-16T16:11:04.322Z,3.78
2023-09-16T16:13:32.427Z,3.03
2023-09-16T16:16:00.922Z,3.38
2023-09-16T16:18:29.513Z,3.47
2023-09-16T16:21:00.175Z,2.90
2023-09-16T16:23:29.003Z,3.03
2023-09-16T16:25:58.010Z,3.67
2023-09-16T16:28:26.263Z,3.13
2023-09-16T16:30:54.491Z,3.22
2023-09-16T16:33:22.819Z,3.75
2023-09-16T16:35:52.289Z,3.03
2023-09-16T16:38:21.757Z,2.42
2023-09-16T16:40:49.830Z,3.05
2023-09-16T16:43:18.192Z,3.80
2023-09-16T16:45:48.602Z,3.22
2023-09-16T16:48:16.790Z,2.80
2023-09-16T16:50:45.619Z,3.33
2023-09-16T16:53:13.731Z,3.45
2023-09-16T16:55:43.241Z,2.55
2023-09-16T16:58:11.613Z,3.22
2023-09-16T17:00:39.764Z,3.13
2023-09-16T17:03:07.992Z,4.05
2023-09-16T17:05:36.986Z,4.03
2023-09-16T17:08:05.697Z,4.63
2023-09-16T17:10:34.122Z,3.55
2023-09-16T17:13:05.760Z,3.42
2023-09-16T17:15:33.901Z,3.83
2023-09-16T17:18:04.698Z,3.17
2023-09-16T17:20:32.964Z,3.40
2023-09-16T17:23:01.100Z,3.70
2023-09-16T17:25:29.414Z,3.67
2023-09-16T17:27:57.753Z,3.58
2023-09-16T17:30:27.957Z,30.30
2023-09-16T17:32:56.228Z,4.40
2023-09-16T17:35:24.365Z,5.47
2023-09-16T17:37:52.571Z,4.13
2023-09-16T17:40:20.656Z,3.38
2023-09-16T17:42:48.778Z,3.70
2023-09-16T17:45:17.048Z,4.30
2023-09-16T17:47:46.568Z,3.40
2023-09-16T17:50:14.741Z,4.03
2023-09-16T17:52:43.070Z,3.50
2023-09-16T17:55:12.130Z,5.20
2023-09-16T17:57:40.297Z,4.22
2023-09-16T18:00:10.662Z,5.05
2023-09-16T18:02:39.663Z,5.55
2023-09-16T18:05:09.808Z,4.88
2023-09-16T18:07:38.073Z,4.43
2023-09-16T18:10:09.829Z,5.22
2023-09-16T18:12:39.691Z,5.25
2023-09-16T18:15:09.005Z,5.63
2023-09-16T18:17:37.192Z,5.03
2023-09-16T18:20:06.345Z,5.80
2023-09-16T18:22:35.985Z,4.43
2023-09-16T18:25:05.709Z,4.43
2023-09-16T18:27:33.973Z,4.50
2023-09-16T18:30:02.233Z,4.75
2023-09-16T18:32:30.442Z,5.70
2023-09-16T18:34:58.814Z,5.22
2023-09-16T18:37:27.099Z,10.40
2023-09-16T18:39:56.655Z,7.53
2023-09-16T18:42:25.078Z,6.95
2023-09-16T18:44:53.488Z,9.43
2023-09-16T18:47:21.727Z,7.95
2023-09-16T18:49:49.964Z,7.53
2023-09-16T18:52:18.402Z,6.07
2023-09-16T18:54:46.559Z,7.00
2023-09-16T18:57:19.447Z,6.60
2023-09-16T18:59:47.648Z,7.03
2023-09-16T19:02:16.633Z,6.63
2023-09-16T19:04:45.173Z,5.45
2023-09-16T19:07:14.128Z,5.38
2023-09-16T19:09:42.364Z,6.50
2023-09-16T19:12:10.632Z,7.32
2023-09-16T19:14:40.403Z,7.20
2023-09-16T19:17:08.724Z,6.85
2023-09-16T19:19:37.037Z,6.40
2023-09-16T19:22:06.449Z,6.53
2023-09-16T19:24:36.275Z,6.40
2023-09-16T19:27:07.001Z,6.22
2023-09-16T19:29:35.226Z,5.43
2023-09-16T19:32:05.367Z,5.93
2023-09-16T19:34:33.640Z,6.30
2023-09-16T19:37:02.156Z,6.45
2023-09-16T19:39:31.081Z,7.15
2023-09-16T19:42:00.606Z,7.40
2023-09-16T19:44:28.816Z,5.78
2023-09-16T19:46:57.804Z,5.70
2023-09-16T19:49:28.051Z,5.10
2023-09-16T19:51:56.451Z,5.82
2023-09-16T19:54:24.790Z,6.28
2023-09-16T19:57:04.000Z,6.82
2023-09-16T19:59:33.517Z,6.30
2023-09-16T20:02:02.464Z,6.35
2023-09-16T20:04:32.150Z,6.68
2023-09-16T20:07:00.771Z,6.28
2023-09-16T20:09:29.082Z,5.68
2023-09-16T20:11:59.210Z,6.13
2023-09-16T20:14:27.420Z,6.45
2023-09-16T20:16:55.852Z,6.00
2023-09-16T20:19:26.134Z,6.63
2023-09-16T20:21:55.893Z,23.85
2023-09-16T20:24:24.443Z,18.63
2023-09-16T20:26:52.625Z,10.30
2023-09-16T20:29:21.012Z,9.50
2023-09-16T20:31:49.260Z,6.40
2023-09-16T20:34:17.791Z,6.60
2023-09-16T20:36:46.471Z,6.13
2023-09-16T20:39:16.271Z,5.93
2023-09-16T20:41:44.804Z,5.68
2023-09-16T20:44:14.361Z,5.55
2023-09-16T20:46:42.888Z,5.55
2023-09-16T20:49:11.223Z,6.35
2023-09-16T20:51:39.463Z,5.18
2023-09-16T20:54:08.944Z,6.38
2023-09-16T20:56:40.004Z,5.43
2023-09-16T20:59:08.183Z,7.03
2023-09-16T21:01:36.397Z,5.95
2023-09-16T21:04:05.082Z,7.28
2023-09-16T21:06:33.566Z,5.82
2023-09-16T21:09:01.896Z,6.40
2023-09-16T21:11:31.617Z,6.32
2023-09-16T21:14:01.186Z,7.05
2023-09-16T21:16:29.417Z,7.05
2023-09-16T21:18:57.746Z,7.40
2023-09-16T21:21:25.895Z,9.30
2023-09-16T21:23:56.184Z,11.85
2023-09-16T21:26:24.665Z,10.30
2023-09-16T21:28:52.732Z,9.52
2023-09-16T21:31:22.621Z,8.57
2023-09-16T21:33:52.814Z,9.52
2023-09-16T21:36:21.095Z,11.38
2023-09-16T21:38:49.256Z,10.25
2023-09-16T21:41:17.568Z,12.10
2023-09-16T21:43:45.942Z,13.10
2023-09-16T21:46:14.595Z,11.43
2023-09-16T21:48:44.216Z,13.50
2023-09-16T21:51:12.312Z,13.07
2023-09-16T21:53:40.436Z,13.02
2023-09-16T21:56:08.727Z,18.08
2023-09-16T21:58:36.902Z,17.00
2023-09-16T22:01:05.246Z,16.33
2023-09-16T22:03:33.456Z,17.15
2023-09-16T22:06:04.802Z,17.85
2023-09-16T22:08:33.005Z,15.88
2023-09-16T22:11:01.268Z,16.27
2023-09-16T22:13:30.121Z,16.60
2023-09-16T22:15:58.703Z,18.15
2023-09-16T22:18:26.985Z,16.50
2023-09-16T22:20:55.092Z,16.27
2023-09-16T22:23:24.709Z,14.63
2023-09-16T22:26:02.938Z,14.15
2023-09-16T22:28:31.274Z,15.13
2023-09-16T22:30:59.535Z,14.63
2023-09-16T22:33:28.080Z,13.60
2023-09-16T22:35:56.407Z,15.23
2023-09-16T22:38:26.955Z,14.63
2023-09-16T22:40:55.029Z,13.85
2023-09-16T22:43:23.340Z,14.52
2023-09-16T22:45:52.455Z,15.10
2023-09-16T22:48:20.623Z,13.30
2023-09-16T22:50:50.658Z,13.88
2023-09-16T22:53:19.240Z,14.00
2023-09-16T22:55:48.785Z,13.30
2023-09-16T22:58:16.968Z,13.85
2023-09-16T23:00:45.048Z,14.90
2023-09-16T23:03:13.453Z,16.25
2023-09-16T23:05:41.617Z,15.98
2023-09-16T23:08:09.792Z,16.67
2023-09-16T23:10:38.434Z,20.13
2023-09-16T23:13:08.009Z,19.25
2023-09-16T23:15:36.234Z,19.75
2023-09-16T23:18:04.683Z,17.60
2023-09-16T23:20:32.838Z,18.20
2023-09-16T23:23:01.322Z,17.88
2023-09-16T23:25:29.767Z,19.45
2023-09-16T23:27:58.014Z,18.08
2023-09-16T23:30:27.571Z,19.17
2023-09-16T23:32:55.786Z,18.70
2023-09-16T23:35:23.954Z,19.27
2023-09-16T23:37:52.128Z,16.75
2023-09-16T23:40:20.434Z,19.50
2023-09-16T23:42:48.573Z,20.00
2023-09-16T23:45:16.690Z,20.52
2023-09-16T23:47:46.209Z,20.08
2023-09-16T23:50:14.513Z,21.80
2023-09-16T23:52:42.756Z,20.02
2023-09-16T23:55:11.271Z,20.95
2023-09-16T23:57:39.365Z,18.70
